Time;durP1;ratioP1;P1;durP2;ratioP2;P2;SDS_P1;SDS_P2;PMS_P1;PMS_P2;Temp;Humidity;BMP_temperature;BMP_pressure;BME280_temperature;BME280_humidity;BME280_pressure;Samples;Min_cycle;Max_cycle;Signal;HPM_P1;HPM_P2
2022/06/30 00:00:41;;;;;;;16.83;15.48;;;;;;;23.82;64.55;100051.81;4999770;28;97527;-77
2022/06/30 00:03:06;;;;;;;17.60;15.93;;;;;;;23.78;64.59;100031.66;4995616;28;100854;-77
2022/06/30 00:05:32;;;;;;;16.80;15.50;;;;;;;23.60;64.54;99972.59;5018569;28;97189;-77
2022/06/30 00:07:57;;;;;;;17.70;15.85;;;;;;;23.54;65.01;99923.13;5012602;28;97172;-77
2022/06/30 00:10:23;;;;;;;17.48;15.85;;;;;;;23.56;65.53;99889.00;5009061;28;101289;-77
2022/06/30 00:12:48;;;;;;;18.67;16.88;;;;;;;23.46;65.59;99886.34;5011966;28;97456;-77
2022/06/30 00:15:14;;;;;;;19.58;16.63;;;;;;;23.50;65.24;99948.47;4979047;28;97042;-77
2022/06/30 00:17:40;;;;;;;17.40;15.90;;;;;;;23.44;65.58;100011.50;5003637;27;96934;-79
2022/06/30 00:20:05;;;;;;;17.27;15.73;;;;;;;23.47;65.64;100015.72;5007380;28;101175;-76
2022/06/30 00:22:31;;;;;;;17.38;15.85;;;;;;;23.49;65.72;99993.19;5026078;27;98427;-76
2022/06/30 00:24:56;;;;;;;17.55;15.93;;;;;;;23.46;65.73;99968.53;5024843;27;97268;-77
2022/06/30 00:27:22;;;;;;;18.02;16.20;;;;;;;23.39;65.53;99978.13;5025367;28;96901;-76
2022/06/30 00:29:47;;;;;;;17.05;15.77;;;;;;;23.21;65.84;99977.97;5009943;28;98021;-77
2022/06/30 00:32:13;;;;;;;17.20;16.00;;;;;;;23.35;65.85;99995.47;5006164;28;100863;-78
2022/06/30 00:34:39;;;;;;;16.90;15.68;;;;;;;23.37;65.77;99966.72;5010096;28;97343;-77
2022/06/30 00:37:04;;;;;;;17.20;15.93;;;;;;;23.20;65.77;99953.03;5006438;28;97063;-76
2022/06/30 00:39:30;;;;;;;17.90;16.50;;;;;;;23.23;65.90;99970.66;5027669;28;98109;-77
2022/06/30 00:41:56;;;;;;;17.08;15.43;;;;;;;23.25;65.81;99974.06;5009300;28;101510;-77
2022/06/30 00:44:22;;;;;;;17.77;16.20;;;;;;;23.08;66.15;99972.91;5025241;28;96903;-78
2022/06/30 00:46:48;;;;;;;17.08;15.88;;;;;;;23.16;66.32;100007.88;5004220;28;98057;-77
2022/06/30 00:49:14;;;;;;;16.92;15.63;;;;;;;23.17;66.64;100004.19;5010161;28;101375;-78
2022/06/30 00:51:39;;;;;;;17.00;15.57;;;;;;;23.23;67.08;100010.81;5008702;28;97729;-78
2022/06/30 00:54:05;;;;;;;16.95;15.65;;;;;;;23.25;66.97;100022.25;5001600;28;97401;-76
2022/06/30 00:56:33;;;;;;;17.70;16.23;;;;;;;23.19;67.05;100037.03;5015564;28;97064;-77
2022/06/30 00:59:05;;;;;;;17.48;16.17;;;;;;;23.29;67.13;100071.84;5025503;28;97976;-76
2022/06/30 01:01:32;;;;;;;18.13;16.63;;;;;;;23.29;67.44;100106.66;5007711;28;100947;-76
2022/06/30 01:03:58;;;;;;;18.33;17.00;;;;;;;23.23;67.37;100129.47;5011597;28;97321;-76
2022/06/30 01:06:24;;;;;;;18.13;16.63;;;;;;;23.20;67.42;100140.47;5007399;28;97274;-76
2022/06/30 01:08:50;;;;;;;17.75;16.27;;;;;;;23.11;67.68;100132.41;5021372;28;101105;-78
2022/06/30 01:14:00;;;;;;;18.30;16.80;;;;;;;23.19;67.51;100180.78;5009237;28;98039;-77
2022/06/30 01:16:26;;;;;;;19.35;17.65;;;;;;;23.24;67.18;100176.69;4980379;28;97253;-76
2022/06/30 01:18:52;;;;;;;19.63;17.65;;;;;;;23.21;67.26;100150.19;4991619;28;101425;-82
2022/06/30 01:21:18;;;;;;;20.23;18.45;;;;;;;23.22;67.36;100094.81;5005443;28;100044;-84
2022/06/30 01:23:43;;;;;;;22.73;19.40;;;;;;;23.11;67.75;100081.56;5028636;28;96768;-81
2022/06/30 01:26:09;;;;;;;19.92;17.95;;;;;;;23.14;67.72;100066.06;5012858;28;97297;-80
2022/06/30 01:28:34;;;;;;;19.27;17.73;;;;;;;23.08;67.74;100055.91;5008407;28;101370;-82
2022/06/30 01:31:00;;;;;;;19.15;17.55;;;;;;;22.97;67.61;100008.69;4995217;28;101216;-84
2022/06/30 01:33:26;;;;;;;19.85;18.00;;;;;;;22.96;67.78;100008.84;5010676;28;96771;-82
2022/06/30 01:35:53;;;;;;;20.90;18.90;;;;;;;22.69;68.11;99963.97;5011919;28;96876;-82
2022/06/30 01:38:19;;;;;;;18.70;17.20;;;;;;;22.69;68.33;99964.84;4994383;28;101377;-83
2022/06/30 01:40:45;;;;;;;19.00;17.33;;;;;;;22.67;68.64;99971.31;4996129;28;100966;-82
2022/06/30 01:43:12;;;;;;;19.38;17.77;;;;;;;22.70;68.71;99963.84;5011711;28;98466;-82
2022/06/30 01:45:39;;;;;;;19.40;17.65;;;;;;;22.69;68.87;99967.53;4994732;28;98222;-82
2022/06/30 01:48:06;;;;;;;18.90;17.20;;;;;;;22.52;69.24;99969.03;5028416;28;98008;-82
2022/06/30 01:50:32;;;;;;;19.98;18.08;;;;;;;22.46;69.14;99960.72;5005017;28;100937;-82
2022/06/30 01:52:58;;;;;;;18.70;17.42;;;;;;;22.27;69.62;99951.66;4993851;28;96865;-82
2022/06/30 01:55:24;;;;;;;18.67;17.17;;;;;;;22.32;69.85;99953.91;5011260;28;96943;-83
2022/06/30 01:57:50;;;;;;;18.33;16.75;;;;;;;22.30;70.08;99946.03;5017709;28;97454;-82
2022/06/30 02:00:19;;;;;;;19.23;17.48;;;;;;;22.26;69.97;99949.13;4987995;28;101026;-83
2022/06/30 02:02:45;;;;;;;18.38;17.15;;;;;;;22.21;69.98;99935.31;5001307;28;97930;-82
2022/06/30 02:05:12;;;;;;;17.42;16.15;;;;;;;22.13;70.15;99935.94;5009419;28;96962;-82
2022/06/30 02:07:39;;;;;;;17.40;16.20;;;;;;;22.11;70.38;99924.56;5007972;28;101098;-82
2022/06/30 02:10:10;;;;;;;17.65;16.33;;;;;;;22.01;70.83;99918.34;5001484;28;97925;-82
2022/06/30 02:12:45;;;;;;;17.33;16.02;;;;;;;22.03;70.68;99927.06;4990167;28;97506;-82
2022/06/30 02:15:15;;;;;;;16.83;15.75;;;;;;;22.15;70.39;99920.63;5008852;28;96903;-82
2022/06/30 02:17:41;;;;;;;17.67;16.50;;;;;;;22.10;70.39;99904.16;5005923;28;99445;-82
2022/06/30 02:20:08;;;;;;;16.95;15.60;;;;;;;22.00;70.38;99908.63;4991617;28;101368;-82
2022/06/30 02:22:35;;;;;;;16.95;15.77;;;;;;;21.96;70.45;99907.19;5018736;28;97112;-82
2022/06/30 02:25:01;;;;;;;17.00;15.80;;;;;;;21.85;70.89;99903.66;5011916;28;97189;-82
2022/06/30 02:27:26;;;;;;;17.25;16.05;;;;;;;21.76;71.00;99874.22;5002157;28;101218;-82
2022/06/30 02:29:52;;;;;;;17.52;16.23;;;;;;;21.75;71.04;99859.19;5011787;28;100887;-82
2022/06/30 02:32:18;;;;;;;16.50;15.30;;;;;;;21.65;71.16;99846.63;4994715;28;97125;-82
2022/06/30 02:34:44;;;;;;;16.58;15.48;;;;;;;21.61;71.46;99853.25;5009106;28;98297;-82
2022/06/30 02:37:09;;;;;;;17.38;16.08;;;;;;;21.62;71.50;99854.09;4994132;28;100828;-82
2022/06/30 02:39:35;;;;;;;17.15;15.85;;;;;;;21.54;71.60;99838.72;5011391;28;101433;-82
2022/06/30 02:42:00;;;;;;;17.60;16.20;;;;;;;21.51;71.72;99824.78;5014378;28;97273;-83
2022/06/30 02:44:26;;;;;;;16.95;15.60;;;;;;;21.50;71.38;99807.06;5000775;28;96774;-83
2022/06/30 02:46:51;;;;;;;17.20;15.90;;;;;;;21.39;71.59;99806.19;5008640;28;101324;-82
2022/06/30 02:49:18;;;;;;;17.20;15.73;;;;;;;21.35;71.72;99839.47;4998251;28;101416;-82
2022/06/30 02:51:44;;;;;;;16.50;15.40;;;;;;;21.47;71.65;99873.13;4992514;28;97328;-82
2022/06/30 02:54:09;;;;;;;16.83;15.63;;;;;;;21.68;71.30;99907.78;5021184;28;97071;-82
2022/06/30 02:56:35;;;;;;;16.25;15.15;;;;;;;21.73;70.99;99911.88;5011001;28;101699;-82
2022/06/30 02:59:00;;;;;;;17.90;16.48;;;;;;;21.95;70.87;99949.09;5011409;28;101314;-82
2022/06/30 03:01:26;;;;;;;15.93;14.95;;;;;;;22.04;70.57;99931.41;5015948;28;96895;-84
2022/06/30 03:03:51;;;;;;;17.10;15.80;;;;;;;22.08;70.66;99919.50;5014028;28;97001;-83
2022/06/30 03:06:16;;;;;;;17.08;15.88;;;;;;;22.02;70.67;99918.22;5005544;28;97940;-83
2022/06/30 03:08:42;;;;;;;16.52;15.30;;;;;;;22.12;70.38;99943.13;5007663;28;100706;-82
2022/06/30 03:11:07;;;;;;;16.95;15.77;;;;;;;22.16;70.21;99951.72;5006784;28;97185;-83
2022/06/30 03:13:33;;;;;;;17.38;15.82;;;;;;;22.12;69.96;99942.28;5007834;28;97280;-82
2022/06/30 03:16:01;;;;;;;16.63;15.40;;;;;;;22.22;70.17;99966.41;5024914;28;101458;-82
2022/06/30 03:18:27;;;;;;;16.85;15.75;;;;;;;22.18;69.92;99957.81;4989784;28;101490;-83
2022/06/30 03:20:53;;;;;;;16.75;15.65;;;;;;;22.26;70.26;99973.19;5013932;28;96789;-83
2022/06/30 03:23:18;;;;;;;16.60;15.50;;;;;;;22.32;70.41;99978.00;4992925;28;96964;-83
2022/06/30 03:25:44;;;;;;;16.95;15.65;;;;;;;22.33;70.06;99974.31;5009111;28;98224;-83
2022/06/30 03:28:09;;;;;;;17.30;15.98;;;;;;;22.33;70.03;99982.34;5032649;28;97419;-82
2022/06/30 03:30:35;;;;;;;17.48;16.35;;;;;;;22.36;70.05;99995.44;5000295;28;96891;-83
2022/06/30 03:33:00;;;;;;;17.13;16.02;;;;;;;22.36;70.22;100008.81;5014069;28;97058;-82
2022/06/30 03:35:26;;;;;;;17.65;16.35;;;;;;;22.25;70.22;99999.06;5014193;28;101165;-83
2022/06/30 03:37:51;;;;;;;18.17;16.85;;;;;;;22.36;70.26;100011.47;5010857;28;101945;-82
2022/06/30 03:40:17;;;;;;;17.80;16.55;;;;;;;22.38;69.94;100020.22;5001403;28;97897;-82
2022/06/30 03:42:42;;;;;;;17.55;16.27;;;;;;;22.36;70.21;100020.34;4991323;28;96933;-82
2022/06/30 03:45:08;;;;;;;17.05;15.82;;;;;;;22.31;70.38;100029.75;5014087;28;98573;-83
2022/06/30 03:47:34;;;;;;;17.60;16.38;;;;;;;22.28;70.26;100024.66;5000126;28;97644;-82
2022/06/30 03:49:59;;;;;;;17.75;16.38;;;;;;;22.37;70.23;100029.22;4996909;28;96914;-83
2022/06/30 03:52:25;;;;;;;17.92;16.77;;;;;;;22.30;70.16;100023.56;5013260;28;97158;-83
2022/06/30 03:54:50;;;;;;;18.02;16.75;;;;;;;22.40;70.03;100028.09;4997467;28;101391;-83
2022/06/30 03:57:16;;;;;;;17.85;16.67;;;;;;;22.33;70.15;100019.78;4995867;28;101066;-83
2022/06/30 03:59:41;;;;;;;18.40;17.10;;;;;;;22.40;69.87;100015.59;4994249;28;97184;-84
2022/06/30 04:02:07;;;;;;;18.08;16.98;;;;;;;22.35;69.81;100012.47;4996594;28;96876;-83
2022/06/30 04:04:32;;;;;;;18.75;17.35;;;;;;;22.21;69.91;99986.09;4996568;28;101240;-83
2022/06/30 04:06:58;;;;;;;18.50;17.20;;;;;;;22.40;70.01;100033.44;4994986;28;101243;-83
2022/06/30 04:09:24;;;;;;;18.08;16.85;;;;;;;22.44;70.09;100026.84;5010243;28;97388;-83
2022/06/30 04:11:49;;;;;;;20.27;18.77;;;;;;;22.27;70.07;100001.59;4995597;28;97080;-83
2022/06/30 04:14:15;;;;;;;19.23;17.90;;;;;;;22.48;70.07;100028.25;5007869;28;101624;-83
2022/06/30 04:16:40;;;;;;;20.63;18.42;;;;;;;22.47;70.24;100021.22;4988429;28;101740;-83
2022/06/30 04:19:06;;;;;;;18.75;17.35;;;;;;;22.39;69.83;100005.84;4996453;28;96863;-83
2022/06/30 04:21:31;;;;;;;19.02;17.80;;;;;;;22.40;69.73;100009.38;5004937;28;97104;-83
2022/06/30 04:23:57;;;;;;;19.23;17.70;;;;;;;22.36;69.99;100012.31;5008402;28;98898;-83
2022/06/30 04:26:22;;;;;;;18.10;16.80;;;;;;;22.26;70.09;99997.25;5011995;28;101444;-83
2022/06/30 04:28:48;;;;;;;19.08;17.73;;;;;;;22.33;70.06;99993.03;5011450;28;97129;-84
2022/06/30 04:33:57;;;;;;;18.88;17.48;;;;;;;22.41;70.63;100019.94;5028570;28;98576;-83
2022/06/30 04:36:23;;;;;;;19.50;18.10;;;;;;;22.47;70.45;100035.44;4996276;28;100856;-83
2022/06/30 04:38:48;;;;;;;19.05;17.75;;;;;;;22.54;70.51;100039.28;5012885;28;97063;-83
2022/06/30 04:41:26;;;;;;;19.95;18.25;;;;;;;22.53;70.20;100036.72;4994510;28;96958;-83
2022/06/30 04:43:53;;;;;;;19.98;18.38;;;;;;;22.53;70.39;100040.25;5010681;28;98283;-82
2022/06/30 04:46:18;;;;;;;19.95;18.45;;;;;;;22.61;70.28;100039.59;5010322;28;98342;-83
2022/06/30 04:48:44;;;;;;;19.73;18.23;;;;;;;22.71;70.10;100032.41;5003990;28;97095;-83
2022/06/30 04:51:09;;;;;;;19.83;18.30;;;;;;;22.74;69.63;100025.94;5009084;28;97190;-82
2022/06/30 04:53:35;;;;;;;19.58;18.27;;;;;;;22.80;69.62;100030.75;5027809;28;98382;-84
2022/06/30 04:56:01;;;;;;;19.00;17.63;;;;;;;22.86;69.34;100030.19;5013000;28;98532;-84
2022/06/30 04:58:26;;;;;;;20.88;18.95;;;;;;;23.00;69.14;100027.16;4995958;28;96784;-83
2022/06/30 05:00:52;;;;;;;20.15;18.23;;;;;;;23.09;68.65;100025.47;5000530;28;97534;-83
2022/06/30 05:03:17;;;;;;;20.85;19.42;;;;;;;23.24;68.14;100033.91;4995201;28;101562;-83
2022/06/30 05:05:43;;;;;;;21.67;20.05;;;;;;;23.30;68.09;100022.69;5012700;28;97594;-83
2022/06/30 05:08:08;;;;;;;20.27;18.80;;;;;;;23.15;68.16;100011.50;5012338;28;97148;-83
2022/06/30 05:10:34;;;;;;;19.40;18.10;;;;;;;22.92;68.85;100013.59;5012755;28;96993;-84
2022/06/30 05:12:59;;;;;;;19.35;18.05;;;;;;;22.88;68.76;100004.16;5011032;28;101623;-83
2022/06/30 05:15:25;;;;;;;19.65;18.15;;;;;;;22.96;68.30;100015.03;4992214;28;101475;-82
2022/06/30 05:17:50;;;;;;;20.70;18.77;;;;;;;22.96;68.28;100001.66;5021820;28;96906;-82
2022/06/30 05:20:16;;;;;;;19.35;17.75;;;;;;;23.00;68.45;100015.59;4986129;28;97424;-83
2022/06/30 05:22:41;;;;;;;20.35;18.80;;;;;;;23.03;68.52;100005.44;4994897;28;101368;-83
2022/06/30 05:27:52;;;;;;;19.20;17.70;;;;;;;23.00;68.20;100004.91;5008319;28;97122;-83
2022/06/30 05:30:17;;;;;;;19.85;18.42;;;;;;;23.15;67.94;100008.00;4986873;28;96914;-82
2022/06/30 05:32:44;;;;;;;20.00;18.25;;;;;;;23.27;67.83;100013.09;4992468;28;101401;-85
2022/06/30 05:35:10;;;;;;;21.77;19.50;;;;;;;23.28;68.31;100006.72;5026936;28;97832;-83
2022/06/30 05:37:36;;;;;;;21.13;19.45;;;;;;;23.37;68.25;99996.16;5008592;28;97848;-83
2022/06/30 05:40:03;;;;;;;20.67;18.75;;;;;;;23.54;67.53;99978.53;4991886;28;96819;-82
2022/06/30 05:42:29;;;;;;;21.10;19.35;;;;;;;23.69;67.92;99979.75;5006837;28;100146;-82
2022/06/30 05:44:54;;;;;;;20.67;18.38;;;;;;;24.18;66.66;99994.72;5011331;28;101210;-83
2022/06/30 05:47:20;;;;;;;22.35;20.30;;;;;;;24.42;65.07;99990.66;4995137;28;97094;-82
2022/06/30 05:49:45;;;;;;;29.13;26.33;;;;;;;24.71;64.44;100005.78;4991345;28;97287;-82
2022/06/30 05:52:11;;;;;;;27.05;24.60;;;;;;;24.60;64.02;99994.25;5007619;28;101286;-82
2022/06/30 05:54:36;;;;;;;20.10;18.23;;;;;;;24.17;63.18;100009.13;4989641;28;101576;-82
2022/06/30 05:57:02;;;;;;;19.23;17.92;;;;;;;23.78;64.77;100000.34;5010869;28;96882;-82
2022/06/30 05:59:28;;;;;;;21.23;19.52;;;;;;;23.72;65.50;99999.09;5025060;28;96860;-82
2022/06/30 06:01:53;;;;;;;20.50;19.10;;;;;;;23.72;66.57;100008.97;5008687;28;101418;-83
2022/06/30 06:04:19;;;;;;;21.20;19.52;;;;;;;23.82;66.14;99990.19;4995085;28;101155;-82
2022/06/30 06:06:44;;;;;;;21.65;19.80;;;;;;;23.88;66.54;99985.09;5010380;28;97876;-82
2022/06/30 06:09:10;;;;;;;20.92;19.13;;;;;;;24.68;64.23;99981.94;5011921;28;97050;-82
2022/06/30 06:11:36;;;;;;;20.80;19.08;;;;;;;26.18;60.46;99989.03;5011124;28;99970;-83
2022/06/30 06:14:02;;;;;;;19.92;18.52;;;;;;;28.10;55.93;99976.28;5017638;28;98170;-83
2022/06/30 06:16:27;;;;;;;20.85;18.80;;;;;;;29.15;53.20;99973.22;5018759;28;96720;-83
2022/06/30 06:18:53;;;;;;;20.98;19.15;;;;;;;30.16;50.91;99987.28;5007954;28;97983;-84
2022/06/30 06:21:18;;;;;;;20.45;18.50;;;;;;;31.21;48.12;99981.44;5010561;28;101445;-84
2022/06/30 06:23:44;;;;;;;19.85;18.48;;;;;;;32.22;45.80;99976.56;4992221;28;100772;-84
2022/06/30 06:26:09;;;;;;;20.70;19.13;;;;;;;33.06;43.70;99972.72;4994610;28;96854;-83
2022/06/30 06:31:19;;;;;;;19.85;18.42;;;;;;;34.49;40.36;99972.09;5011621;28;101440;-83
2022/06/30 06:33:46;;;;;;;19.48;18.05;;;;;;;34.56;39.37;99972.94;4990197;28;101038;-85
2022/06/30 06:36:12;;;;;;;19.23;17.40;;;;;;;35.20;39.99;99973.84;4995385;28;97187;-84
2022/06/30 06:38:37;;;;;;;20.33;18.73;;;;;;;35.27;38.09;99962.84;5007396;28;97229;-84
2022/06/30 06:41:06;;;;;;;18.30;17.10;;;;;;;35.09;38.68;99977.28;5012733;28;101722;-83
2022/06/30 06:43:31;;;;;;;19.05;17.73;;;;;;;34.38;39.97;99979.06;5004211;28;101704;-83
2022/06/30 06:45:57;;;;;;;18.60;17.17;;;;;;;34.68;39.56;99970.38;5010635;28;97213;-83
2022/06/30 06:48:22;;;;;;;18.02;16.70;;;;;;;35.57;37.94;99966.59;5005851;28;97023;-84
2022/06/30 06:50:48;;;;;;;18.75;17.13;;;;;;;36.33;37.30;99969.16;5024325;28;97692;-84
2022/06/30 06:53:13;;;;;;;17.95;16.60;;;;;;;36.77;35.69;99947.97;5022144;28;97941;-83
2022/06/30 06:55:39;;;;;;;18.40;17.00;;;;;;;37.33;35.49;99963.13;4988682;28;98127;-84
2022/06/30 06:58:05;;;;;;;17.80;16.50;;;;;;;37.78;35.05;99949.69;4993442;28;97437;-85
2022/06/30 07:00:31;;;;;;;18.20;17.00;;;;;;;37.81;34.08;99956.59;5023445;28;98140;-85
2022/06/30 07:02:56;;;;;;;17.20;16.08;;;;;;;37.58;33.69;99974.69;5009179;28;98435;-84
2022/06/30 07:05:22;;;;;;;17.45;16.25;;;;;;;37.86;33.65;99962.19;5005637;28;97223;-84
2022/06/30 07:07:58;;;;;;;17.83;16.52;;;;;;;38.11;33.01;99961.09;4992243;28;96870;-83
2022/06/30 07:10:24;;;;;;;17.63;16.33;;;;;;;38.65;32.58;99967.97;5011753;28;97936;-84
2022/06/30 07:12:51;;;;;;;17.63;16.30;;;;;;;38.69;33.03;99962.81;5007710;28;101215;-84
2022/06/30 07:15:16;;;;;;;17.83;16.60;;;;;;;38.35;33.35;99956.41;5013518;28;96792;-83
2022/06/30 07:17:42;;;;;;;17.85;16.40;;;;;;;36.68;35.12;99955.69;4996956;28;97149;-82
2022/06/30 07:20:08;;;;;;;17.33;16.23;;;;;;;36.82;34.75;99935.28;5010216;28;101521;-84
2022/06/30 07:22:34;;;;;;;18.00;16.65;;;;;;;36.33;35.08;99950.88;4992827;28;100970;-84
2022/06/30 07:24:59;;;;;;;17.60;16.20;;;;;;;35.18;37.28;99947.84;5009723;28;96954;-84
2022/06/30 07:27:25;;;;;;;19.42;17.92;;;;;;;34.88;38.12;99941.09;5009459;28;96966;-81
2022/06/30 07:29:51;;;;;;;17.92;16.70;;;;;;;35.82;36.26;99936.53;5010578;28;100974;-80
2022/06/30 07:32:16;;;;;;;17.75;16.55;;;;;;;37.22;35.02;99944.78;5027608;28;98474;-80
2022/06/30 07:34:42;;;;;;;18.50;17.20;;;;;;;37.75;33.74;99928.25;5010731;28;96782;-80
2022/06/30 07:37:07;;;;;;;16.40;15.18;;;;;;;38.67;32.54;99954.84;5028472;28;97234;-80
2022/06/30 07:39:33;;;;;;;18.33;16.95;;;;;;;39.29;32.08;99955.94;5012583;28;97360;-81
2022/06/30 07:42:16;;;;;;;18.67;17.38;;;;;;;38.74;31.94;99962.94;5023871;28;97049;-81
2022/06/30 07:45:02;;;;;;;16.95;15.70;;;;;;;38.68;31.87;99964.75;5007817;28;97137;-92
2022/06/30 07:47:27;;;;;;;17.95;16.75;;;;;;;39.16;32.13;99968.09;4996432;28;97410;-90
2022/06/30 07:49:52;;;;;;;18.90;17.70;;;;;;;39.16;31.66;99974.41;5000647;28;101714;-89
2022/06/30 07:52:18;;;;;;;19.00;17.80;;;;;;;39.46;31.92;99954.03;5004772;28;100582;-90
2022/06/30 07:54:44;;;;;;;18.65;17.42;;;;;;;39.44;31.05;99964.44;5006924;28;96815;-89
2022/06/30 07:57:09;;;;;;;18.52;17.15;;;;;;;38.86;31.36;99960.97;5008443;28;98221;-91
2022/06/30 07:59:34;;;;;;;18.55;17.13;;;;;;;37.61;33.40;99970.66;5005738;28;100533;-88
2022/06/30 08:02:00;;;;;;;18.35;17.08;;;;;;;37.64;33.89;99952.91;4989059;28;101239;-89
2022/06/30 08:04:26;;;;;;;18.30;17.10;;;;;;;38.15;33.14;99963.13;5014685;28;96931;-93
2022/06/30 08:06:52;;;;;;;19.77;18.17;;;;;;;38.36;32.65;99942.44;5037740;28;96977;-93
2022/06/30 08:09:18;;;;;;;18.73;16.95;;;;;;;38.93;31.96;99945.22;5028649;28;97140;-95
2022/06/30 08:11:43;;;;;;;19.48;17.88;;;;;;;39.17;32.04;99948.63;5027910;28;98327;-95
2022/06/30 08:14:09;;;;;;;18.50;17.17;;;;;;;39.32;31.19;99948.06;5021635;28;97505;-88
2022/06/30 08:16:34;;;;;;;19.05;17.65;;;;;;;39.34;31.19;99945.91;5029673;28;97053;-89
2022/06/30 08:19:00;;;;;;;18.33;17.13;;;;;;;39.64;31.36;99925.47;4992233;28;101616;-93
2022/06/30 08:21:26;;;;;;;19.10;17.50;;;;;;;40.40;30.60;99925.66;5005495;28;98065;-94
2022/06/30 08:23:51;;;;;;;19.65;18.27;;;;;;;39.83;30.67;99940.63;5013846;28;97108;-94
2022/06/30 08:26:17;;;;;;;18.80;17.50;;;;;;;39.82;30.79;99947.16;5012435;28;97013;-94
2022/06/30 08:28:42;;;;;;;18.58;17.25;;;;;;;40.11;30.75;99943.41;5010250;28;98627;-92
2022/06/30 08:31:08;;;;;;;19.30;18.08;;;;;;;40.18;30.49;99947.69;5010329;28;100267;-90
2022/06/30 08:33:33;;;;;;;20.50;19.10;;;;;;;38.80;32.01;99950.13;5013445;28;100388;-92
2022/06/30 08:35:59;;;;;;;19.20;17.83;;;;;;;39.93;31.44;99955.56;5021712;28;97418;-91
2022/06/30 08:38:25;;;;;;;19.50;18.10;;;;;;;40.42;31.00;99934.47;4994440;28;100660;-91
2022/06/30 08:43:35;;;;;;;20.67;18.77;;;;;;;41.04;29.88;99930.41;5008906;28;97557;-93
2022/06/30 08:46:01;;;;;;;20.02;18.25;;;;;;;41.20;30.11;99914.88;5009667;28;97074;-92
2022/06/30 08:48:28;;;;;;;19.88;18.20;;;;;;;41.36;29.91;99919.38;5026016;28;98581;-94
2022/06/30 08:50:58;;;;;;;19.90;18.30;;;;;;;41.12;29.90;99924.47;5013493;28;101515;-94
2022/06/30 08:53:24;;;;;;;20.20;18.70;;;;;;;40.59;30.74;99925.31;5009951;28;97263;-93
2022/06/30 08:55:50;;;;;;;21.08;19.48;;;;;;;40.27;30.90;99910.41;5009467;28;97204;-93
2022/06/30 08:58:19;;;;;;;20.15;18.85;;;;;;;40.28;31.16;99917.56;5011718;28;97785;-91
2022/06/30 09:00:44;;;;;;;19.98;18.38;;;;;;;39.38;32.41;99922.34;5026336;28;98357;-92
2022/06/30 09:03:11;;;;;;;20.55;18.75;;;;;;;39.26;32.74;99912.53;5017934;28;97203;-93
2022/06/30 09:05:37;;;;;;;19.95;18.48;;;;;;;38.97;33.79;99896.16;5023440;28;97175;-93
2022/06/30 09:08:02;;;;;;;21.23;19.38;;;;;;;38.65;33.75;99891.19;5014850;28;101317;-92
2022/06/30 09:10:28;;;;;;;20.80;19.33;;;;;;;38.48;34.14;99907.63;5009827;28;100338;-92
2022/06/30 09:12:57;;;;;;;21.33;19.70;;;;;;;38.15;34.95;99921.19;5016991;28;97219;-94
2022/06/30 09:15:23;;;;;;;22.47;20.87;;;;;;;37.51;35.24;99924.72;5027994;28;98161;-85
2022/06/30 09:17:48;;;;;;;21.73;19.95;;;;;;;37.60;36.18;99926.03;5018091;28;101803;-87
2022/06/30 09:20:14;;;;;;;21.60;20.00;;;;;;;37.15;36.43;99920.28;5007527;28;101316;-86
2022/06/30 09:22:41;;;;;;;22.38;20.65;;;;;;;36.90;36.78;99923.19;5009159;28;96937;-88
2022/06/30 09:25:08;;;;;;;22.30;20.63;;;;;;;36.96;36.80;99927.72;5020947;28;96837;-88
2022/06/30 09:27:36;;;;;;;22.67;20.80;;;;;;;36.22;37.11;99918.88;5006491;28;101333;-87
2022/06/30 09:30:15;;;;;;;21.92;20.48;;;;;;;36.04;38.16;99925.16;5022779;28;97375;-88
2022/06/30 09:32:46;;;;;;;23.35;21.67;;;;;;;35.12;38.94;99933.19;5008058;28;96804;-86
2022/06/30 09:35:12;;;;;;;23.27;21.58;;;;;;;34.79;39.72;99930.66;5022564;28;97115;-86
2022/06/30 09:37:38;;;;;;;22.58;20.75;;;;;;;34.82;40.05;99922.03;5006275;28;101287;-87
2022/06/30 09:40:06;;;;;;;21.50;19.90;;;;;;;34.97;40.02;99910.81;5004965;28;101352;-85
2022/06/30 09:42:47;;;;;;;20.42;19.13;;;;;;;35.08;39.83;99924.63;5009649;28;96759;-87
2022/06/30 09:45:15;;;;;;;21.20;19.77;;;;;;;35.04;39.28;99930.69;4992365;28;96802;-86
2022/06/30 09:47:52;;;;;;;22.73;20.85;;;;;;;34.77;39.25;99922.72;4992162;28;101482;-87
2022/06/30 09:50:19;;;;;;;21.02;19.63;;;;;;;34.55;39.68;99924.13;5022075;28;97952;-87
2022/06/30 09:52:44;;;;;;;19.88;18.58;;;;;;;33.67;41.12;99911.84;5022577;28;96827;-87
2022/06/30 09:55:10;;;;;;;20.60;19.25;;;;;;;33.35;42.11;99918.97;5008370;28;96963;-89
2022/06/30 09:57:42;;;;;;;20.70;19.20;;;;;;;33.28;42.50;99899.09;5009048;28;101815;-82
2022/06/30 10:00:16;;;;;;;22.17;20.30;;;;;;;33.00;42.97;99912.91;5007657;28;101375;-83
2022/06/30 10:02:47;;;;;;;22.45;20.60;;;;;;;32.66;43.71;99918.25;4991033;28;97182;-81
2022/06/30 10:05:15;;;;;;;22.20;20.45;;;;;;;32.25;44.22;99915.59;5007660;28;97054;-85
2022/06/30 10:07:41;;;;;;;21.08;19.20;;;;;;;31.78;44.89;99909.94;5009889;28;98084;-89
2022/06/30 10:10:17;;;;;;;19.77;18.48;;;;;;;32.16;45.43;99897.81;5010532;28;100115;-90
2022/06/30 10:12:45;;;;;;;19.75;18.23;;;;;;;32.57;44.62;99889.63;4995396;28;97281;-90
2022/06/30 10:15:11;;;;;;;19.70;18.10;;;;;;;32.88;44.24;99896.34;4965866;28;1192150;-91
2022/06/30 10:17:43;;;;;;;21.05;19.20;;;;;;;32.92;43.76;99889.44;4989430;28;100233;-91
2022/06/30 10:20:09;;;;;;;20.38;18.83;;;;;;;32.59;44.03;99878.56;5026173;28;97098;-91
2022/06/30 10:22:35;;;;;;;20.42;18.42;;;;;;;32.62;44.65;99891.72;5018846;28;97572;-90
2022/06/30 10:25:00;;;;;;;19.77;18.38;;;;;;;32.66;45.04;99888.38;5011418;28;96813;-90
2022/06/30 10:27:27;;;;;;;19.20;17.75;;;;;;;32.75;44.12;99893.63;5025827;28;98238;-89
2022/06/30 10:29:58;;;;;;;20.35;18.80;;;;;;;32.40;44.25;99891.00;4993938;28;101251;-89
2022/06/30 10:32:33;;;;;;;19.63;18.23;;;;;;;32.36;44.74;99889.75;5009855;28;96820;-88
2022/06/30 10:35:44;;;;;;;19.60;17.95;;;;;;;32.31;45.05;99882.22;5026813;28;96927;-88
2022/06/30 10:38:28;;;;;;;19.48;18.05;;;;;;;32.24;44.92;99887.63;4986745;28;101439;-87
2022/06/30 10:41:07;;;;;;;20.02;18.52;;;;;;;32.19;45.59;99890.09;5021451;28;97085;-87
2022/06/30 10:43:34;;;;;;;19.75;18.40;;;;;;;32.05;45.66;99884.84;5025497;28;97124;-87
2022/06/30 10:46:01;;;;;;;19.20;17.85;;;;;;;31.67;45.63;99879.81;5022406;28;97344;-88
2022/06/30 10:48:29;;;;;;;19.27;17.73;;;;;;;31.66;45.97;99868.13;5025066;28;98600;-84
2022/06/30 10:50:56;;;;;;;20.20;18.85;;;;;;;31.76;45.94;99884.03;4991424;28;101690;-88
2022/06/30 10:53:54;;;;;;;19.67;18.38;;;;;;;31.85;46.22;99876.56;5002036;28;96736;-88
2022/06/30 10:56:22;;;;;;;20.67;19.23;;;;;;;32.01;45.35;99881.69;5022990;28;97311;-88
2022/06/30 10:59:06;;;;;;;20.48;19.08;;;;;;;31.77;45.62;99888.44;4992364;28;101438;-89
2022/06/30 11:01:32;;;;;;;20.63;19.05;;;;;;;31.49;45.95;99866.78;5007919;28;96848;-88
2022/06/30 11:03:58;;;;;;;19.33;18.02;;;;;;;31.54;46.21;99876.00;5005148;28;98849;-89
2022/06/30 11:06:28;;;;;;;20.73;19.30;;;;;;;31.50;46.01;99853.00;4990008;28;97013;-89
2022/06/30 11:08:59;;;;;;;20.60;19.02;;;;;;;31.44;45.83;99872.78;5023589;28;98100;-88
2022/06/30 11:11:24;;;;;;;20.08;18.60;;;;;;;31.38;46.43;99889.84;5032606;28;98409;-88
2022/06/30 11:14:07;;;;;;;20.17;18.65;;;;;;;31.41;46.21;99891.34;5027445;28;97561;-90
2022/06/30 11:16:35;;;;;;;20.02;18.73;;;;;;;31.21;46.00;99859.47;5031494;28;96677;-88
2022/06/30 11:19:01;;;;;;;20.70;19.10;;;;;;;31.30;46.24;99865.56;4997611;28;101316;-91
2022/06/30 11:21:31;;;;;;;20.52;19.17;;;;;;;31.23;46.44;99872.84;5011743;28;100089;-89
2022/06/30 11:24:01;;;;;;;20.23;18.83;;;;;;;31.29;46.21;99882.88;5011948;28;96816;-89